sensor_id;sensor_type;location;lat;lon;timestamp;P1;durP1;ratioP1;P2;durP2;ratioP2
16179;SDS011;8196;49.428;10.906;2023-06-01T00:00:59;5.22;;;2.90;;
16179;SDS011;8196;49.428;10.906;2023-06-01T00:03:27;3.80;;;2.60;;
16179;SDS011;8196;49.428;10.906;2023-06-01T00:05:55;4.70;;;2.80;;
16179;SDS011;8196;49.428;10.906;2023-06-01T00:08:22;5.55;;;2.60;;
16179;SDS011;8196;49.428;10.906;2023-06-01T00:10:49;4.10;;;2.60;;
16179;SDS011;8196;49.428;10.906;2023-06-01T00:13:16;4.30;;;2.80;;
16179;SDS011;8196;49.428;10.906;2023-06-01T00:15:42;3.80;;;2.80;;
16179;SDS011;8196;49.428;10.906;2023-06-01T00:18:10;4.72;;;2.72;;
16179;SDS011;8196;49.428;10.906;2023-06-01T00:20:39;3.58;;;2.60;;
16179;SDS011;8196;49.428;10.906;2023-06-01T00:23:06;3.53;;;2.85;;
16179;SDS011;8196;49.428;10.906;2023-06-01T00:25:34;3.28;;;2.45;;
16179;SDS011;8196;49.428;10.906;2023-06-01T00:28:01;5.82;;;2.83;;
16179;SDS011;8196;49.428;10.906;2023-06-01T00:30:29;4.90;;;3.17;;
16179;SDS011;8196;49.428;10.906;2023-06-01T00:32:55;4.22;;;2.65;;
16179;SDS011;8196;49.428;10.906;2023-06-01T00:35:22;6.97;;;3.00;;
16179;SDS011;8196;49.428;10.906;2023-06-01T00:37:49;5.38;;;2.88;;
16179;SDS011;8196;49.428;10.906;2023-06-01T00:40:16;6.10;;;2.90;;
16179;SDS011;8196;49.428;10.906;2023-06-01T00:42:43;4.30;;;2.80;;
16179;SDS011;8196;49.428;10.906;2023-06-01T00:45:10;5.68;;;2.88;;
16179;SDS011;8196;49.428;10.906;2023-06-01T00:47:39;5.67;;;3.20;;
16179;SDS011;8196;49.428;10.906;2023-06-01T00:50:09;4.13;;;2.70;;
16179;SDS011;8196;49.428;10.906;2023-06-01T00:52:37;4.32;;;2.60;;
16179;SDS011;8196;49.428;10.906;2023-06-01T00:55:05;4.00;;;2.95;;
16179;SDS011;8196;49.428;10.906;2023-06-01T00:57:32;3.58;;;2.90;;
16179;SDS011;8196;49.428;10.906;2023-06-01T01:00:00;4.85;;;3.00;;
16179;SDS011;8196;49.428;10.906;2023-06-01T01:02:35;4.72;;;2.90;;
16179;SDS011;8196;49.428;10.906;2023-06-01T01:05:04;5.78;;;2.88;;
16179;SDS011;8196;49.428;10.906;2023-06-01T01:10:21;5.85;;;3.13;;
16179;SDS011;8196;49.428;10.906;2023-06-01T01:18:39;4.55;;;3.10;;
16179;SDS011;8196;49.428;10.906;2023-06-01T01:21:11;5.88;;;3.10;;
16179;SDS011;8196;49.428;10.906;2023-06-01T01:27:04;4.40;;;2.90;;
16179;SDS011;8196;49.428;10.906;2023-06-01T01:29:36;4.03;;;3.22;;
16179;SDS011;8196;49.428;10.906;2023-06-01T01:32:05;4.27;;;3.00;;
16179;SDS011;8196;49.428;10.906;2023-06-01T01:34:32;5.43;;;3.03;;
16179;SDS011;8196;49.428;10.906;2023-06-01T01:37:01;5.00;;;3.10;;
16179;SDS011;8196;49.428;10.906;2023-06-01T01:39:28;4.38;;;2.92;;
16179;SDS011;8196;49.428;10.906;2023-06-01T01:41:55;4.30;;;3.50;;
16179;SDS011;8196;49.428;10.906;2023-06-01T01:44:21;4.63;;;3.10;;
16179;SDS011;8196;49.428;10.906;2023-06-01T01:46:52;4.30;;;2.87;;
16179;SDS011;8196;49.428;10.906;2023-06-01T01:49:27;5.63;;;3.35;;
16179;SDS011;8196;49.428;10.906;2023-06-01T01:52:16;6.10;;;3.10;;
16179;SDS011;8196;49.428;10.906;2023-06-01T01:54:49;4.28;;;3.15;;
16179;SDS011;8196;49.428;10.906;2023-06-01T01:57:17;5.40;;;3.03;;
16179;SDS011;8196;49.428;10.906;2023-06-01T01:59:45;5.53;;;3.13;;
16179;SDS011;8196;49.428;10.906;2023-06-01T02:02:12;4.03;;;3.50;;
16179;SDS011;8196;49.428;10.906;2023-06-01T02:04:39;4.10;;;2.83;;
16179;SDS011;8196;49.428;10.906;2023-06-01T02:07:07;3.95;;;2.97;;
16179;SDS011;8196;49.428;10.906;2023-06-01T02:09:35;5.90;;;3.20;;
16179;SDS011;8196;49.428;10.906;2023-06-01T02:12:02;5.13;;;3.05;;
16179;SDS011;8196;49.428;10.906;2023-06-01T02:14:29;6.15;;;3.28;;
16179;SDS011;8196;49.428;10.906;2023-06-01T02:16:56;5.47;;;3.20;;
16179;SDS011;8196;49.428;10.906;2023-06-01T02:19:22;4.70;;;3.28;;
16179;SDS011;8196;49.428;10.906;2023-06-01T02:21:49;7.13;;;3.00;;
16179;SDS011;8196;49.428;10.906;2023-06-01T02:24:16;5.00;;;3.13;;
16179;SDS011;8196;49.428;10.906;2023-06-01T02:26:45;5.03;;;3.13;;
16179;SDS011;8196;49.428;10.906;2023-06-01T02:29:14;4.65;;;3.45;;
16179;SDS011;8196;49.428;10.906;2023-06-01T02:31:41;5.97;;;3.40;;
16179;SDS011;8196;49.428;10.906;2023-06-01T02:34:08;4.07;;;3.17;;
16179;SDS011;8196;49.428;10.906;2023-06-01T02:36:35;4.18;;;3.33;;
16179;SDS011;8196;49.428;10.906;2023-06-01T02:39:02;4.63;;;3.30;;
16179;SDS011;8196;49.428;10.906;2023-06-01T02:41:29;5.30;;;3.35;;
16179;SDS011;8196;49.428;10.906;2023-06-01T02:43:55;3.67;;;3.10;;
16179;SDS011;8196;49.428;10.906;2023-06-01T02:46:22;4.93;;;3.30;;
16179;SDS011;8196;49.428;10.906;2023-06-01T02:48:49;5.60;;;3.50;;
16179;SDS011;8196;49.428;10.906;2023-06-01T02:51:17;4.65;;;3.30;;
16179;SDS011;8196;49.428;10.906;2023-06-01T02:53:45;4.97;;;3.40;;
16179;SDS011;8196;49.428;10.906;2023-06-01T02:56:12;5.55;;;3.58;;
16179;SDS011;8196;49.428;10.906;2023-06-01T02:58:40;6.72;;;3.50;;
16179;SDS011;8196;49.428;10.906;2023-06-01T03:01:07;5.32;;;3.70;;
16179;SDS011;8196;49.428;10.906;2023-06-01T03:03:38;6.65;;;3.70;;
16179;SDS011;8196;49.428;10.906;2023-06-01T03:06:05;4.57;;;3.33;;
16179;SDS011;8196;49.428;10.906;2023-06-01T03:08:32;4.60;;;3.20;;
16179;SDS011;8196;49.428;10.906;2023-06-01T03:11:00;5.32;;;3.53;;
16179;SDS011;8196;49.428;10.906;2023-06-01T03:13:28;5.32;;;3.50;;
16179;SDS011;8196;49.428;10.906;2023-06-01T03:15:54;4.93;;;3.45;;
16179;SDS011;8196;49.428;10.906;2023-06-01T03:18:21;4.68;;;3.67;;
16179;SDS011;8196;49.428;10.906;2023-06-01T03:20:48;4.07;;;3.28;;
16179;SDS011;8196;49.428;10.906;2023-06-01T03:23:15;5.75;;;3.50;;
16179;SDS011;8196;49.428;10.906;2023-06-01T03:25:42;5.05;;;3.60;;
16179;SDS011;8196;49.428;10.906;2023-06-01T03:28:08;5.28;;;3.60;;
16179;SDS011;8196;49.428;10.906;2023-06-01T03:30:35;6.40;;;3.60;;
16179;SDS011;8196;49.428;10.906;2023-06-01T03:33:02;5.00;;;3.40;;
16179;SDS011;8196;49.428;10.906;2023-06-01T03:35:29;4.10;;;3.50;;
16179;SDS011;8196;49.428;10.906;2023-06-01T03:37:56;5.75;;;3.45;;
16179;SDS011;8196;49.428;10.906;2023-06-01T03:40:22;6.38;;;3.83;;
16179;SDS011;8196;49.428;10.906;2023-06-01T03:42:49;5.60;;;3.63;;
16179;SDS011;8196;49.428;10.906;2023-06-01T03:45:16;4.90;;;3.33;;
16179;SDS011;8196;49.428;10.906;2023-06-01T03:47:43;4.47;;;3.60;;
16179;SDS011;8196;49.428;10.906;2023-06-01T03:50:10;6.45;;;4.00;;
16179;SDS011;8196;49.428;10.906;2023-06-01T03:52:38;4.88;;;3.47;;
16179;SDS011;8196;49.428;10.906;2023-06-01T03:55:07;5.90;;;3.67;;
16179;SDS011;8196;49.428;10.906;2023-06-01T03:57:37;5.05;;;3.55;;
16179;SDS011;8196;49.428;10.906;2023-06-01T04:00:06;4.63;;;3.70;;
16179;SDS011;8196;49.428;10.906;2023-06-01T04:02:45;7.10;;;3.58;;
16179;SDS011;8196;49.428;10.906;2023-06-01T04:05:15;5.55;;;3.78;;
16179;SDS011;8196;49.428;10.906;2023-06-01T04:07:46;4.85;;;3.75;;
16179;SDS011;8196;49.428;10.906;2023-06-01T04:10:15;5.30;;;4.10;;
16179;SDS011;8196;49.428;10.906;2023-06-01T04:12:43;6.03;;;4.07;;
16179;SDS011;8196;49.428;10.906;2023-06-01T04:15:11;7.22;;;3.97;;
16179;SDS011;8196;49.428;10.906;2023-06-01T04:17:39;4.72;;;3.50;;
16179;SDS011;8196;49.428;10.906;2023-06-01T04:20:08;5.82;;;3.90;;
16179;SDS011;8196;49.428;10.906;2023-06-01T04:22:37;6.10;;;3.75;;
16179;SDS011;8196;49.428;10.906;2023-06-01T04:25:06;8.77;;;4.00;;
16179;SDS011;8196;49.428;10.906;2023-06-01T04:27:35;6.00;;;4.15;;
16179;SDS011;8196;49.428;10.906;2023-06-01T04:30:04;4.87;;;3.67;;
16179;SDS011;8196;49.428;10.906;2023-06-01T04:32:35;5.95;;;3.97;;
16179;SDS011;8196;49.428;10.906;2023-06-01T04:35:04;5.63;;;3.80;;
16179;SDS011;8196;49.428;10.906;2023-06-01T04:37:32;6.13;;;3.75;;
16179;SDS011;8196;49.428;10.906;2023-06-01T04:40:02;4.95;;;3.90;;
16179;SDS011;8196;49.428;10.906;2023-06-01T04:42:34;5.38;;;3.70;;
16179;SDS011;8196;49.428;10.906;2023-06-01T04:45:02;6.17;;;3.80;;
16179;SDS011;8196;49.428;10.906;2023-06-01T04:47:30;5.03;;;3.75;;
16179;SDS011;8196;49.428;10.906;2023-06-01T04:49:58;4.65;;;3.92;;
16179;SDS011;8196;49.428;10.906;2023-06-01T04:52:24;4.70;;;3.55;;
16179;SDS011;8196;49.428;10.906;2023-06-01T04:54:52;5.30;;;3.60;;
16179;SDS011;8196;49.428;10.906;2023-06-01T04:57:19;5.33;;;3.90;;
16179;SDS011;8196;49.428;10.906;2023-06-01T04:59:45;4.35;;;3.70;;
16179;SDS011;8196;49.428;10.906;2023-06-01T05:02:14;5.87;;;4.10;;
16179;SDS011;8196;49.428;10.906;2023-06-01T05:04:41;5.00;;;3.80;;
16179;SDS011;8196;49.428;10.906;2023-06-01T05:07:08;4.97;;;3.70;;
16179;SDS011;8196;49.428;10.906;2023-06-01T05:09:34;4.85;;;3.65;;
16179;SDS011;8196;49.428;10.906;2023-06-01T05:12:01;7.38;;;3.83;;
16179;SDS011;8196;49.428;10.906;2023-06-01T05:14:28;6.82;;;3.80;;
16179;SDS011;8196;49.428;10.906;2023-06-01T05:16:55;4.47;;;3.55;;
16179;SDS011;8196;49.428;10.906;2023-06-01T05:19:22;4.78;;;3.60;;
16179;SDS011;8196;49.428;10.906;2023-06-01T05:21:49;5.73;;;3.70;;
16179;SDS011;8196;49.428;10.906;2023-06-01T05:24:16;8.10;;;4.00;;
16179;SDS011;8196;49.428;10.906;2023-06-01T05:26:42;5.10;;;4.00;;
16179;SDS011;8196;49.428;10.906;2023-06-01T05:29:09;5.88;;;3.60;;
16179;SDS011;8196;49.428;10.906;2023-06-01T05:31:36;6.53;;;3.73;;
16179;SDS011;8196;49.428;10.906;2023-06-01T05:34:03;4.40;;;3.40;;
16179;SDS011;8196;49.428;10.906;2023-06-01T05:36:30;5.85;;;3.70;;
16179;SDS011;8196;49.428;10.906;2023-06-01T05:38:58;4.65;;;3.67;;
16179;SDS011;8196;49.428;10.906;2023-06-01T05:41:25;4.97;;;3.67;;
16179;SDS011;8196;49.428;10.906;2023-06-01T05:43:52;6.38;;;4.05;;
16179;SDS011;8196;49.428;10.906;2023-06-01T05:46:19;5.13;;;3.72;;
16179;SDS011;8196;49.428;10.906;2023-06-01T05:48:46;4.93;;;3.38;;
16179;SDS011;8196;49.428;10.906;2023-06-01T05:51:13;4.65;;;3.22;;
16179;SDS011;8196;49.428;10.906;2023-06-01T05:53:41;5.20;;;3.00;;
16179;SDS011;8196;49.428;10.906;2023-06-01T05:56:07;4.82;;;3.30;;
16179;SDS011;8196;49.428;10.906;2023-06-01T05:58:34;4.07;;;3.13;;
16179;SDS011;8196;49.428;10.906;2023-06-01T06:01:01;5.90;;;3.17;;
16179;SDS011;8196;49.428;10.906;2023-06-01T06:03:28;4.13;;;3.00;;
16179;SDS011;8196;49.428;10.906;2023-06-01T06:05:55;4.30;;;3.00;;
16179;SDS011;8196;49.428;10.906;2023-06-01T06:08:22;4.40;;;2.92;;
16179;SDS011;8196;49.428;10.906;2023-06-01T06:10:49;4.27;;;2.70;;
16179;SDS011;8196;49.428;10.906;2023-06-01T06:13:16;5.63;;;3.45;;
16179;SDS011;8196;49.428;10.906;2023-06-01T06:15:42;4.32;;;2.92;;
16179;SDS011;8196;49.428;10.906;2023-06-01T06:18:09;4.90;;;3.00;;
16179;SDS011;8196;49.428;10.906;2023-06-01T06:20:36;4.67;;;2.80;;
16179;SDS011;8196;49.428;10.906;2023-06-01T06:25:29;3.42;;;2.63;;
16179;SDS011;8196;49.428;10.906;2023-06-01T06:27:56;4.50;;;2.60;;
16179;SDS011;8196;49.428;10.906;2023-06-01T06:30:23;3.70;;;2.70;;
16179;SDS011;8196;49.428;10.906;2023-06-01T06:32:51;4.70;;;2.80;;
16179;SDS011;8196;49.428;10.906;2023-06-01T06:35:18;3.78;;;2.63;;
16179;SDS011;8196;49.428;10.906;2023-06-01T06:37:44;4.78;;;2.50;;
16179;SDS011;8196;49.428;10.906;2023-06-01T06:40:11;6.15;;;2.60;;
16179;SDS011;8196;49.428;10.906;2023-06-01T06:42:38;4.68;;;2.60;;
16179;SDS011;8196;49.428;10.906;2023-06-01T06:45:05;5.40;;;2.53;;
16179;SDS011;8196;49.428;10.906;2023-06-01T06:47:32;5.32;;;2.50;;
16179;SDS011;8196;49.428;10.906;2023-06-01T06:49:59;3.33;;;2.60;;
16179;SDS011;8196;49.428;10.906;2023-06-01T06:52:26;4.75;;;2.50;;
16179;SDS011;8196;49.428;10.906;2023-06-01T06:54:52;4.30;;;2.50;;
16179;SDS011;8196;49.428;10.906;2023-06-01T06:57:19;6.70;;;2.60;;
16179;SDS011;8196;49.428;10.906;2023-06-01T06:59:46;4.40;;;2.83;;
16179;SDS011;8196;49.428;10.906;2023-06-01T07:02:13;5.95;;;3.00;;
16179;SDS011;8196;49.428;10.906;2023-06-01T07:04:39;7.30;;;2.70;;
16179;SDS011;8196;49.428;10.906;2023-06-01T07:07:06;5.90;;;2.75;;
16179;SDS011;8196;49.428;10.906;2023-06-01T07:09:33;5.00;;;3.05;;
16179;SDS011;8196;49.428;10.906;2023-06-01T07:12:00;8.60;;;3.10;;
16179;SDS011;8196;49.428;10.906;2023-06-01T07:14:26;8.02;;;2.78;;
16179;SDS011;8196;49.428;10.906;2023-06-01T07:16:53;7.07;;;2.77;;
16179;SDS011;8196;49.428;10.906;2023-06-01T07:19:20;8.82;;;3.20;;
16179;SDS011;8196;49.428;10.906;2023-06-01T07:21:48;4.38;;;2.22;;
16179;SDS011;8196;49.428;10.906;2023-06-01T07:26:44;2.95;;;1.85;;
16179;SDS011;8196;49.428;10.906;2023-06-01T07:29:11;5.57;;;2.45;;
16179;SDS011;8196;49.428;10.906;2023-06-01T07:31:39;3.33;;;2.00;;
16179;SDS011;8196;49.428;10.906;2023-06-01T07:34:06;3.72;;;2.00;;
16179;SDS011;8196;49.428;10.906;2023-06-01T07:36:32;3.22;;;2.20;;
16179;SDS011;8196;49.428;10.906;2023-06-01T07:39:03;6.40;;;2.22;;
16179;SDS011;8196;49.428;10.906;2023-06-01T07:41:32;3.40;;;2.10;;
16179;SDS011;8196;49.428;10.906;2023-06-01T07:46:26;3.20;;;2.13;;
16179;SDS011;8196;49.428;10.906;2023-06-01T07:48:53;3.42;;;1.98;;
16179;SDS011;8196;49.428;10.906;2023-06-01T07:51:20;6.13;;;2.30;;
16179;SDS011;8196;49.428;10.906;2023-06-01T07:53:47;3.40;;;2.00;;
16179;SDS011;8196;49.428;10.906;2023-06-01T07:56:14;3.22;;;1.80;;
16179;SDS011;8196;49.428;10.906;2023-06-01T07:58:41;5.25;;;1.85;;
16179;SDS011;8196;49.428;10.906;2023-06-01T08:01:10;3.28;;;1.98;;
16179;SDS011;8196;49.428;10.906;2023-06-01T08:03:37;3.60;;;1.90;;
16179;SDS011;8196;49.428;10.906;2023-06-01T08:06:09;4.13;;;1.90;;
16179;SDS011;8196;49.428;10.906;2023-06-01T08:08:37;3.63;;;1.83;;
16179;SDS011;8196;49.428;10.906;2023-06-01T08:11:05;3.63;;;2.00;;
16179;SDS011;8196;49.428;10.906;2023-06-01T08:13:32;5.63;;;2.00;;
16179;SDS011;8196;49.428;10.906;2023-06-01T08:16:01;5.50;;;2.13;;
16179;SDS011;8196;49.428;10.906;2023-06-01T08:18:30;4.30;;;1.90;;
16179;SDS011;8196;49.428;10.906;2023-06-01T08:20:57;4.57;;;2.00;;
16179;SDS011;8196;49.428;10.906;2023-06-01T08:23:23;2.35;;;1.73;;
16179;SDS011;8196;49.428;10.906;2023-06-01T08:25:50;3.45;;;2.20;;
16179;SDS011;8196;49.428;10.906;2023-06-01T08:28:17;4.13;;;2.10;;
16179;SDS011;8196;49.428;10.906;2023-06-01T08:30:44;3.25;;;1.90;;
16179;SDS011;8196;49.428;10.906;2023-06-01T08:33:10;3.15;;;1.90;;
16179;SDS011;8196;49.428;10.906;2023-06-01T08:35:37;4.40;;;2.30;;
16179;SDS011;8196;49.428;10.906;2023-06-01T08:38:09;4.00;;;2.10;;
16179;SDS011;8196;49.428;10.906;2023-06-01T08:40:36;2.50;;;1.90;;
16179;SDS011;8196;49.428;10.906;2023-06-01T08:45:41;2.45;;;1.95;;
16179;SDS011;8196;49.428;10.906;2023-06-01T08:48:09;4.80;;;1.97;;
16179;SDS011;8196;49.428;10.906;2023-06-01T08:50:42;4.03;;;1.80;;
16179;SDS011;8196;49.428;10.906;2023-06-01T08:53:12;4.43;;;2.30;;
16179;SDS011;8196;49.428;10.906;2023-06-01T08:55:44;3.35;;;2.33;;
16179;SDS011;8196;49.428;10.906;2023-06-01T08:58:12;7.30;;;1.83;;
16179;SDS011;8196;49.428;10.906;2023-06-01T09:00:40;3.30;;;1.90;;
16179;SDS011;8196;49.428;10.906;2023-06-01T09:03:08;13.68;;;3.22;;
16179;SDS011;8196;49.428;10.906;2023-06-01T09:05:36;3.78;;;1.83;;
16179;SDS011;8196;49.428;10.906;2023-06-01T09:08:03;5.35;;;2.10;;
16179;SDS011;8196;49.428;10.906;2023-06-01T09:10:30;5.22;;;2.13;;
16179;SDS011;8196;49.428;10.906;2023-06-01T09:12:56;4.53;;;2.10;;
16179;SDS011;8196;49.428;10.906;2023-06-01T09:15:23;3.33;;;2.05;;
16179;SDS011;8196;49.428;10.906;2023-06-01T09:17:52;2.97;;;1.63;;
16179;SDS011;8196;49.428;10.906;2023-06-01T09:20:30;4.00;;;1.80;;
16179;SDS011;8196;49.428;10.906;2023-06-01T09:22:58;2.53;;;1.63;;
16179;SDS011;8196;49.428;10.906;2023-06-01T09:25:26;5.90;;;2.42;;
16179;SDS011;8196;49.428;10.906;2023-06-01T09:27:55;5.57;;;2.05;;
16179;SDS011;8196;49.428;10.906;2023-06-01T09:30:23;3.60;;;2.10;;
16179;SDS011;8196;49.428;10.906;2023-06-01T09:33:06;4.67;;;2.07;;
16179;SDS011;8196;49.428;10.906;2023-06-01T09:35:40;7.00;;;1.80;;
16179;SDS011;8196;49.428;10.906;2023-06-01T09:38:11;3.30;;;1.92;;
16179;SDS011;8196;49.428;10.906;2023-06-01T09:40:55;1.95;;;1.50;;
16179;SDS011;8196;49.428;10.906;2023-06-01T09:43:23;2.78;;;1.42;;
16179;SDS011;8196;49.428;10.906;2023-06-01T09:48:41;3.50;;;1.52;;
16179;SDS011;8196;49.428;10.906;2023-06-01T09:51:25;1.98;;;1.70;;
16179;SDS011;8196;49.428;10.906;2023-06-01T09:53:57;5.47;;;1.88;;
16179;SDS011;8196;49.428;10.906;2023-06-01T09:56:24;2.70;;;1.63;;
16179;SDS011;8196;49.428;10.906;2023-06-01T09:58:56;7.15;;;1.58;;
16179;SDS011;8196;49.428;10.906;2023-06-01T10:01:26;6.35;;;1.98;;
16179;SDS011;8196;49.428;10.906;2023-06-01T10:03:55;2.13;;;1.70;;
16179;SDS011;8196;49.428;10.906;2023-06-01T10:06:24;2.75;;;1.70;;
16179;SDS011;8196;49.428;10.906;2023-06-01T10:08:51;5.40;;;1.77;;
16179;SDS011;8196;49.428;10.906;2023-06-01T10:11:19;1.40;;;1.30;;
16179;SDS011;8196;49.428;10.906;2023-06-01T10:13:46;2.25;;;1.90;;
16179;SDS011;8196;49.428;10.906;2023-06-01T10:16:13;2.42;;;1.73;;
16179;SDS011;8196;49.428;10.906;2023-06-01T10:18:41;2.85;;;1.92;;
16179;SDS011;8196;49.428;10.906;2023-06-01T10:21:07;2.08;;;1.85;;
16179;SDS011;8196;49.428;10.906;2023-06-01T10:23:34;1.50;;;1.40;;
16179;SDS011;8196;49.428;10.906;2023-06-01T10:26:05;2.40;;;1.80;;
16179;SDS011;8196;49.428;10.906;2023-06-01T10:28:37;2.13;;;1.42;;
16179;SDS011;8196;49.428;10.906;2023-06-01T10:34:09;5.22;;;1.70;;
16179;SDS011;8196;49.428;10.906;2023-06-01T10:39:23;2.00;;;1.80;;
16179;SDS011;8196;49.428;10.906;2023-06-01T10:41:52;3.20;;;1.98;;
16179;SDS011;8196;49.428;10.906;2023-06-01T10:47:06;4.25;;;2.03;;
16179;SDS011;8196;49.428;10.906;2023-06-01T10:50:14;2.05;;;1.60;;
16179;SDS011;8196;49.428;10.906;2023-06-01T10:52:41;1.90;;;1.60;;
16179;SDS011;8196;49.428;10.906;2023-06-01T10:57:36;4.88;;;1.58;;
16179;SDS011;8196;49.428;10.906;2023-06-01T11:02:45;2.95;;;1.83;;
16179;SDS011;8196;49.428;10.906;2023-06-01T11:08:03;2.35;;;1.70;;
16179;SDS011;8196;49.428;10.906;2023-06-01T11:21:17;3.90;;;1.60;;
16179;SDS011;8196;49.428;10.906;2023-06-01T11:23:48;2.67;;;1.55;;
16179;SDS011;8196;49.428;10.906;2023-06-01T11:26:15;2.58;;;1.80;;
16179;SDS011;8196;49.428;10.906;2023-06-01T11:28:45;3.00;;;1.73;;
16179;SDS011;8196;49.428;10.906;2023-06-01T11:31:14;3.88;;;2.10;;
16179;SDS011;8196;49.428;10.906;2023-06-01T11:33:49;4.45;;;2.08;;
16179;SDS011;8196;49.428;10.906;2023-06-01T11:36:19;2.25;;;1.73;;
16179;SDS011;8196;49.428;10.906;2023-06-01T11:38:50;6.65;;;2.03;;
16179;SDS011;8196;49.428;10.906;2023-06-01T11:41:20;2.08;;;1.63;;
16179;SDS011;8196;49.428;10.906;2023-06-01T11:43:56;2.10;;;1.67;;
16179;SDS011;8196;49.428;10.906;2023-06-01T11:46:23;2.28;;;1.70;;
16179;SDS011;8196;49.428;10.906;2023-06-01T11:49:07;2.30;;;1.92;;
16179;SDS011;8196;49.428;10.906;2023-06-01T11:51:36;2.08;;;1.58;;
16179;SDS011;8196;49.428;10.906;2023-06-01T11:54:05;4.50;;;2.10;;
16179;SDS011;8196;49.428;10.906;2023-06-01T11:56:33;2.47;;;1.70;;
16179;SDS011;8196;49.428;10.906;2023-06-01T11:59:03;1.75;;;1.65;;
16179;SDS011;8196;49.428;10.906;2023-06-01T12:01:36;3.40;;;1.92;;
16179;SDS011;8196;49.428;10.906;2023-06-01T12:04:12;4.03;;;1.65;;
16179;SDS011;8196;49.428;10.906;2023-06-01T12:06:39;1.60;;;1.45;;
16179;SDS011;8196;49.428;10.906;2023-06-01T12:09:06;5.32;;;2.08;;
16179;SDS011;8196;49.428;10.906;2023-06-01T12:11:34;2.17;;;1.90;;
16179;SDS011;8196;49.428;10.906;2023-06-01T12:14:01;1.67;;;1.58;;
16179;SDS011;8196;49.428;10.906;2023-06-01T12:19:25;2.35;;;1.58;;
16179;SDS011;8196;49.428;10.906;2023-06-01T12:21:55;3.55;;;1.88;;
16179;SDS011;8196;49.428;10.906;2023-06-01T12:24:26;3.08;;;1.98;;
16179;SDS011;8196;49.428;10.906;2023-06-01T12:26:55;2.88;;;1.90;;
16179;SDS011;8196;49.428;10.906;2023-06-01T12:29:39;2.33;;;1.77;;
16179;SDS011;8196;49.428;10.906;2023-06-01T12:32:08;2.17;;;1.50;;
16179;SDS011;8196;49.428;10.906;2023-06-01T12:34:36;3.53;;;1.70;;
16179;SDS011;8196;49.428;10.906;2023-06-01T12:37:20;2.22;;;2.03;;
16179;SDS011;8196;49.428;10.906;2023-06-01T12:39:51;3.65;;;2.15;;
16179;SDS011;8196;49.428;10.906;2023-06-01T12:42:25;2.50;;;1.75;;
16179;SDS011;8196;49.428;10.906;2023-06-01T12:45:02;3.78;;;1.70;;
16179;SDS011;8196;49.428;10.906;2023-06-01T12:47:34;2.20;;;1.92;;
16179;SDS011;8196;49.428;10.906;2023-06-01T12:50:04;2.25;;;1.80;;
16179;SDS011;8196;49.428;10.906;2023-06-01T12:52:32;4.20;;;1.80;;
16179;SDS011;8196;49.428;10.906;2023-06-01T12:55:00;2.72;;;1.73;;
16179;SDS011;8196;49.428;10.906;2023-06-01T12:57:30;2.10;;;1.60;;
16179;SDS011;8196;49.428;10.906;2023-06-01T12:59:57;3.58;;;2.00;;
16179;SDS011;8196;49.428;10.906;2023-06-01T13:02:24;4.10;;;2.05;;
16179;SDS011;8196;49.428;10.906;2023-06-01T13:04:52;2.03;;;1.83;;
16179;SDS011;8196;49.428;10.906;2023-06-01T13:07:19;1.90;;;1.70;;
16179;SDS011;8196;49.428;10.906;2023-06-01T13:09:49;1.95;;;1.85;;
16179;SDS011;8196;49.428;10.906;2023-06-01T13:12:17;2.30;;;1.60;;
16179;SDS011;8196;49.428;10.906;2023-06-01T13:14:44;1.80;;;1.50;;
16179;SDS011;8196;49.428;10.906;2023-06-01T13:17:11;4.35;;;2.03;;
16179;SDS011;8196;49.428;10.906;2023-06-01T13:19:38;2.00;;;1.83;;
16179;SDS011;8196;49.428;10.906;2023-06-01T13:22:07;2.08;;;1.95;;
16179;SDS011;8196;49.428;10.906;2023-06-01T13:24:35;2.17;;;1.70;;
16179;SDS011;8196;49.428;10.906;2023-06-01T13:27:05;3.10;;;2.25;;
16179;SDS011;8196;49.428;10.906;2023-06-01T13:29:33;1.85;;;1.50;;
16179;SDS011;8196;49.428;10.906;2023-06-01T13:32:00;2.33;;;1.75;;
16179;SDS011;8196;49.428;10.906;2023-06-01T13:34:27;4.75;;;1.80;;
16179;SDS011;8196;49.428;10.906;2023-06-01T13:36:54;4.35;;;2.10;;
16179;SDS011;8196;49.428;10.906;2023-06-01T13:39:23;3.55;;;2.00;;
16179;SDS011;8196;49.428;10.906;2023-06-01T13:41:50;2.33;;;2.10;;
16179;SDS011;8196;49.428;10.906;2023-06-01T13:44:17;3.40;;;2.00;;
16179;SDS011;8196;49.428;10.906;2023-06-01T13:46:44;2.38;;;2.17;;
16179;SDS011;8196;49.428;10.906;2023-06-01T13:49:11;1.90;;;1.65;;
16179;SDS011;8196;49.428;10.906;2023-06-01T13:51:38;2.22;;;2.03;;
16179;SDS011;8196;49.428;10.906;2023-06-01T13:54:05;2.13;;;1.85;;
16179;SDS011;8196;49.428;10.906;2023-06-01T13:56:32;5.88;;;2.75;;
16179;SDS011;8196;49.428;10.906;2023-06-01T13:58:59;8.10;;;2.53;;
16179;SDS011;8196;49.428;10.906;2023-06-01T14:01:26;6.32;;;2.17;;
16179;SDS011;8196;49.428;10.906;2023-06-01T14:03:53;3.05;;;1.80;;
16179;SDS011;8196;49.428;10.906;2023-06-01T14:06:20;2.35;;;1.73;;
16179;SDS011;8196;49.428;10.906;2023-06-01T14:08:47;9.32;;;2.25;;
16179;SDS011;8196;49.428;10.906;2023-06-01T14:11:15;3.42;;;1.98;;
16179;SDS011;8196;49.428;10.906;2023-06-01T14:13:41;2.22;;;1.60;;
16179;SDS011;8196;49.428;10.906;2023-06-01T14:16:08;2.33;;;2.00;;
16179;SDS011;8196;49.428;10.906;2023-06-01T14:18:35;2.75;;;2.20;;
16179;SDS011;8196;49.428;10.906;2023-06-01T14:21:02;2.25;;;1.65;;
16179;SDS011;8196;49.428;10.906;2023-06-01T14:23:28;3.08;;;2.03;;
16179;SDS011;8196;49.428;10.906;2023-06-01T14:25:55;1.70;;;1.60;;
16179;SDS011;8196;49.428;10.906;2023-06-01T14:28:22;5.80;;;2.08;;
16179;SDS011;8196;49.428;10.906;2023-06-01T14:30:49;2.03;;;1.65;;
16179;SDS011;8196;49.428;10.906;2023-06-01T14:33:16;2.88;;;2.58;;
16179;SDS011;8196;49.428;10.906;2023-06-01T14:35:43;2.70;;;2.00;;
16179;SDS011;8196;49.428;10.906;2023-06-01T14:38:10;2.08;;;1.60;;
16179;SDS011;8196;49.428;10.906;2023-06-01T14:40:37;3.33;;;1.90;;
16179;SDS011;8196;49.428;10.906;2023-06-01T14:43:04;2.13;;;1.93;;
16179;SDS011;8196;49.428;10.906;2023-06-01T14:45:31;4.15;;;1.95;;
16179;SDS011;8196;49.428;10.906;2023-06-01T14:47:58;2.90;;;1.80;;
16179;SDS011;8196;49.428;10.906;2023-06-01T14:50:25;2.55;;;1.90;;
16179;SDS011;8196;49.428;10.906;2023-06-01T14:52:52;3.15;;;1.98;;
16179;SDS011;8196;49.428;10.906;2023-06-01T14:55:25;4.13;;;2.00;;
16179;SDS011;8196;49.428;10.906;2023-06-01T14:57:52;5.40;;;2.13;;
16179;SDS011;8196;49.428;10.906;2023-06-01T15:00:19;2.90;;;2.00;;
16179;SDS011;8196;49.428;10.906;2023-06-01T15:02:45;3.15;;;1.73;;
16179;SDS011;8196;49.428;10.906;2023-06-01T15:05:15;1.90;;;1.80;;
16179;SDS011;8196;49.428;10.906;2023-06-01T15:07:42;2.03;;;1.83;;
16179;SDS011;8196;49.428;10.906;2023-06-01T15:10:08;3.15;;;1.80;;
16179;SDS011;8196;49.428;10.906;2023-06-01T15:12:36;3.63;;;1.70;;
16179;SDS011;8196;49.428;10.906;2023-06-01T15:15:03;2.30;;;1.70;;
16179;SDS011;8196;49.428;10.906;2023-06-01T15:17:31;2.28;;;1.67;;
16179;SDS011;8196;49.428;10.906;2023-06-01T15:19:58;4.40;;;1.55;;
16179;SDS011;8196;49.428;10.906;2023-06-01T15:22:24;2.25;;;1.60;;
16179;SDS011;8196;49.428;10.906;2023-06-01T15:24:51;2.65;;;1.85;;
16179;SDS011;8196;49.428;10.906;2023-06-01T15:27:18;2.58;;;2.05;;
16179;SDS011;8196;49.428;10.906;2023-06-01T15:29:47;2.55;;;1.50;;
16179;SDS011;8196;49.428;10.906;2023-06-01T15:32:14;2.67;;;1.40;;
16179;SDS011;8196;49.428;10.906;2023-06-01T15:34:40;2.17;;;1.70;;
16179;SDS011;8196;49.428;10.906;2023-06-01T15:37:09;1.75;;;1.65;;
16179;SDS011;8196;49.428;10.906;2023-06-01T15:39:37;2.55;;;1.70;;
16179;SDS011;8196;49.428;10.906;2023-06-01T15:42:05;2.13;;;1.80;;
16179;SDS011;8196;49.428;10.906;2023-06-01T15:44:38;2.15;;;1.95;;
16179;SDS011;8196;49.428;10.906;2023-06-01T15:47:07;2.77;;;1.80;;
16179;SDS011;8196;49.428;10.906;2023-06-01T15:49:34;2.65;;;1.85;;